<?xml version="1.0" encoding="UTF-8"?><gpx creator="Wikiloc - https://www.wikiloc.com" version="1.1" xmlns="http://www.topografix.com/GPX/1/1" xmlns:xsi="http://www.w3.org/2001/XMLSchema-instance" xsi:schemaLocation="http://www.topografix.com/GPX/1/1 http://www.topografix.com/GPX/1/1/gpx.xsd"><metadata><name>Wikiloc - GAMA- CASTILLO - VALLE RECUEVAS - GAMA</name><author><name>javmermar</name><link href="https://www.wikiloc.com/wikiloc/user.do?id=154572"><text>javmermar on Wikiloc</text></link></author><link href="https://www.wikiloc.com/hiking-trails/gama-castillo-valle-recuevas-gama-2034461"><text>GAMA- CASTILLO - VALLE RECUEVAS - GAMA on Wikiloc</text></link><time>2011-09-14T11:54:21.702Z</time></metadata><trk><name>GAMA- CASTILLO - VALLE RECUEVAS - GAMA - Wikiloc</name><cmt></cmt><desc></desc><trkseg><trkpt lat="42.747882" lon="-4.208474"><ele>951.666</ele><time>2026-07-22T11:14:08.347116404Z</time></trkpt><trkpt lat="42.747829" lon="-4.208299"><ele>952.129</ele><time>2026-07-22T11:14:48.347127955Z</time></trkpt><trkpt lat="42.747810" lon="-4.208214"><ele>952.421</ele><time>2026-07-22T11:15:28.347136020Z</time></trkpt><trkpt lat="42.747780" lon="-4.208170"><ele>953.007</ele><time>2026-07-22T11:16:08.347143364Z</time></trkpt><trkpt lat="42.747745" lon="-4.208130"><ele>953.998</ele><time>2026-07-22T11:16:48.347151499Z</time></trkpt><trkpt lat="42.747697" lon="-4.208134"><ele>955.156</ele><time>2026-07-22T11:17:28.347158693Z</time></trkpt><trkpt lat="42.747677" lon="-4.208157"><ele>955.799</ele><time>2026-07-22T11:18:08.347165686Z</time></trkpt><trkpt lat="42.747660" lon="-4.208424"><ele>956.770</ele><time>2026-07-22T11:18:48.347172629Z</time></trkpt><trkpt lat="42.747663" lon="-4.208403"><ele>956.620</ele><time>2026-07-22T11:19:28.347179331Z</time></trkpt><trkpt lat="42.747612" lon="-4.208169"><ele>957.462</ele><time>2026-07-22T11:20:08.347186174Z</time></trkpt><trkpt lat="42.747555" lon="-4.208075"><ele>958.737</ele><time>2026-07-22T11:20:48.347192937Z</time></trkpt><trkpt lat="42.747517" lon="-4.208059"><ele>959.635</ele><time>2026-07-22T11:21:28.347199670Z</time></trkpt><trkpt lat="42.747223" lon="-4.207851"><ele>967.586</ele><time>2026-07-22T11:22:08.347207745Z</time></trkpt><trkpt lat="42.747109" lon="-4.207765"><ele>970.514</ele><time>2026-07-22T11:22:48.347216611Z</time></trkpt><trkpt lat="42.746702" lon="-4.207520"><ele>978.507</ele><time>2026-07-22T11:23:28.347223494Z</time></trkpt><trkpt lat="42.746347" lon="-4.207285"><ele>985.825</ele><time>2026-07-22T11:24:08.347230367Z</time></trkpt><trkpt lat="42.746273" lon="-4.207234"><ele>987.873</ele><time>2026-07-22T11:24:48.347237090Z</time></trkpt><trkpt lat="42.746176" lon="-4.207262"><ele>992.186</ele><time>2026-07-22T11:25:28.347243872Z</time></trkpt><trkpt lat="42.746108" lon="-4.207245"><ele>994.547</ele><time>2026-07-22T11:26:08.347250655Z</time></trkpt><trkpt lat="42.745963" lon="-4.207371"><ele>1002.037</ele><time>2026-07-22T11:26:48.347257658Z</time></trkpt><trkpt lat="42.745922" lon="-4.207299"><ele>1002.559</ele><time>2026-07-22T11:27:28.347264501Z</time></trkpt><trkpt lat="42.745898" lon="-4.207179"><ele>1003.384</ele><time>2026-07-22T11:28:08.347271254Z</time></trkpt><trkpt lat="42.745780" lon="-4.206977"><ele>1012.677</ele><time>2026-07-22T11:28:48.347278156Z</time></trkpt><trkpt lat="42.745735" lon="-4.206958"><ele>1015.061</ele><time>2026-07-22T11:29:28.347284969Z</time></trkpt><trkpt lat="42.745694" lon="-4.206964"><ele>1016.727</ele><time>2026-07-22T11:30:08.347291772Z</time></trkpt><trkpt lat="42.745650" lon="-4.207045"><ele>1017.207</ele><time>2026-07-22T11:30:48.350141125Z</time></trkpt><trkpt lat="42.745581" lon="-4.207207"><ele>1017.969</ele><time>2026-07-22T11:31:28.350153558Z</time></trkpt><trkpt lat="42.745709" lon="-4.207599"><ele>1019.227</ele><time>2026-07-22T11:32:08.350161393Z</time></trkpt><trkpt lat="42.745749" lon="-4.208054"><ele>1032.380</ele><time>2026-07-22T11:32:48.350168766Z</time></trkpt><trkpt lat="42.745782" lon="-4.208252"><ele>1036.391</ele><time>2026-07-22T11:33:28.350176050Z</time></trkpt><trkpt lat="42.745880" lon="-4.208478"><ele>1036.211</ele><time>2026-07-22T11:34:08.350182993Z</time></trkpt><trkpt lat="42.745989" lon="-4.208856"><ele>1039.063</ele><time>2026-07-22T11:34:48.350190026Z</time></trkpt><trkpt lat="42.745992" lon="-4.209181"><ele>1044.418</ele><time>2026-07-22T11:35:28.350196999Z</time></trkpt><trkpt lat="42.745982" lon="-4.209214"><ele>1044.943</ele><time>2026-07-22T11:36:08.350204223Z</time></trkpt><trkpt lat="42.745926" lon="-4.209129"><ele>1047.364</ele><time>2026-07-22T11:36:48.350211246Z</time></trkpt><trkpt lat="42.745912" lon="-4.209053"><ele>1046.510</ele><time>2026-07-22T11:37:28.350218229Z</time></trkpt><trkpt lat="42.745822" lon="-4.208992"><ele>1049.307</ele><time>2026-07-22T11:38:08.350225162Z</time></trkpt><trkpt lat="42.745697" lon="-4.208857"><ele>1051.816</ele><time>2026-07-22T11:38:48.350232175Z</time></trkpt><trkpt lat="42.745617" lon="-4.208805"><ele>1055.224</ele><time>2026-07-22T11:39:28.350239148Z</time></trkpt><trkpt lat="42.745569" lon="-4.208831"><ele>1057.117</ele><time>2026-07-22T11:40:08.350246311Z</time></trkpt><trkpt lat="42.745588" lon="-4.208781"><ele>1056.628</ele><time>2026-07-22T11:40:48.350253214Z</time></trkpt><trkpt lat="42.745579" lon="-4.208646"><ele>1058.228</ele><time>2026-07-22T11:41:28.350267321Z</time></trkpt><trkpt lat="42.745569" lon="-4.208543"><ele>1057.690</ele><time>2026-07-22T11:42:08.350274304Z</time></trkpt><trkpt lat="42.745542" lon="-4.208522"><ele>1058.135</ele><time>2026-07-22T11:42:48.350281247Z</time></trkpt><trkpt lat="42.745504" lon="-4.208484"><ele>1057.638</ele><time>2026-07-22T11:43:28.350288190Z</time></trkpt><trkpt lat="42.745519" lon="-4.208449"><ele>1057.070</ele><time>2026-07-22T11:44:08.350295063Z</time></trkpt><trkpt lat="42.745488" lon="-4.208409"><ele>1057.017</ele><time>2026-07-22T11:44:48.350301885Z</time></trkpt><trkpt lat="42.745479" lon="-4.208455"><ele>1057.507</ele><time>2026-07-22T11:45:28.350308788Z</time></trkpt><trkpt lat="42.745461" lon="-4.208306"><ele>1056.145</ele><time>2026-07-22T11:46:08.350315882Z</time></trkpt><trkpt lat="42.745347" lon="-4.208192"><ele>1057.823</ele><time>2026-07-22T11:46:48.350325930Z</time></trkpt><trkpt lat="42.745383" lon="-4.208219"><ele>1056.626</ele><time>2026-07-22T11:47:28.350334016Z</time></trkpt><trkpt lat="42.745368" lon="-4.208196"><ele>1056.827</ele><time>2026-07-22T11:48:08.350340808Z</time></trkpt><trkpt lat="42.745318" lon="-4.208247"><ele>1060.377</ele><time>2026-07-22T11:48:48.350347561Z</time></trkpt><trkpt lat="42.745336" lon="-4.208242"><ele>1059.469</ele><time>2026-07-22T11:49:28.350354404Z</time></trkpt><trkpt lat="42.745327" lon="-4.208201"><ele>1059.044</ele><time>2026-07-22T11:50:08.350361196Z</time></trkpt><trkpt lat="42.745274" lon="-4.208180"><ele>1061.398</ele><time>2026-07-22T11:50:48.350368119Z</time></trkpt><trkpt lat="42.744977" lon="-4.207940"><ele>1062.515</ele><time>2026-07-22T11:51:28.350374982Z</time></trkpt><trkpt lat="42.744861" lon="-4.207941"><ele>1064.126</ele><time>2026-07-22T11:52:08.350381755Z</time></trkpt><trkpt lat="42.744978" lon="-4.208462"><ele>1053.307</ele><time>2026-07-22T11:52:48.350388598Z</time></trkpt><trkpt lat="42.745058" lon="-4.208491"><ele>1053.491</ele><time>2026-07-22T11:53:28.350395350Z</time></trkpt><trkpt lat="42.745347" lon="-4.208905"><ele>1047.379</ele><time>2026-07-22T11:54:08.350402243Z</time></trkpt><trkpt lat="42.745449" lon="-4.208992"><ele>1047.962</ele><time>2026-07-22T11:54:48.350409006Z</time></trkpt><trkpt lat="42.745580" lon="-4.209265"><ele>1039.893</ele><time>2026-07-22T11:55:28.350415739Z</time></trkpt><trkpt lat="42.745551" lon="-4.209299"><ele>1036.763</ele><time>2026-07-22T11:56:08.350422571Z</time></trkpt><trkpt lat="42.745647" lon="-4.209420"><ele>1036.025</ele><time>2026-07-22T11:56:48.350429394Z</time></trkpt><trkpt lat="42.745704" lon="-4.209768"><ele>1023.740</ele><time>2026-07-22T11:57:28.350436227Z</time></trkpt><trkpt lat="42.745749" lon="-4.209966"><ele>1017.629</ele><time>2026-07-22T11:58:08.350443080Z</time></trkpt><trkpt lat="42.745832" lon="-4.210065"><ele>1016.200</ele><time>2026-07-22T11:58:48.350450313Z</time></trkpt><trkpt lat="42.745892" lon="-4.210093"><ele>1017.420</ele><time>2026-07-22T11:59:28.350481612Z</time></trkpt><trkpt lat="42.745963" lon="-4.210172"><ele>1016.607</ele><time>2026-07-22T12:00:08.350488695Z</time></trkpt><trkpt lat="42.746018" lon="-4.210173"><ele>1018.724</ele><time>2026-07-22T12:00:48.350495598Z</time></trkpt><trkpt lat="42.746026" lon="-4.210240"><ele>1015.882</ele><time>2026-07-22T12:01:28.350502431Z</time></trkpt><trkpt lat="42.746047" lon="-4.210261"><ele>1015.515</ele><time>2026-07-22T12:02:08.350509163Z</time></trkpt><trkpt lat="42.746072" lon="-4.210230"><ele>1018.016</ele><time>2026-07-22T12:02:48.350515946Z</time></trkpt><trkpt lat="42.746099" lon="-4.210267"><ele>1017.166</ele><time>2026-07-22T12:03:28.350522809Z</time></trkpt><trkpt lat="42.746063" lon="-4.210313"><ele>1013.338</ele><time>2026-07-22T12:04:08.350529602Z</time></trkpt><trkpt lat="42.746012" lon="-4.210376"><ele>1008.423</ele><time>2026-07-22T12:04:48.350536525Z</time></trkpt><trkpt lat="42.745979" lon="-4.210365"><ele>1008.083</ele><time>2026-07-22T12:05:28.350543367Z</time></trkpt><trkpt lat="42.745987" lon="-4.210371"><ele>1007.925</ele><time>2026-07-22T12:06:08.350550250Z</time></trkpt><trkpt lat="42.745992" lon="-4.210393"><ele>1007.017</ele><time>2026-07-22T12:06:48.350557203Z</time></trkpt><trkpt lat="42.746096" lon="-4.210397"><ele>1009.707</ele><time>2026-07-22T12:07:28.350564076Z</time></trkpt><trkpt lat="42.746132" lon="-4.210497"><ele>1004.270</ele><time>2026-07-22T12:08:08.350570819Z</time></trkpt><trkpt lat="42.746112" lon="-4.210569"><ele>1000.318</ele><time>2026-07-22T12:08:48.350577722Z</time></trkpt><trkpt lat="42.746143" lon="-4.210591"><ele>998.831</ele><time>2026-07-22T12:09:28.350584544Z</time></trkpt><trkpt lat="42.746163" lon="-4.210698"><ele>992.772</ele><time>2026-07-22T12:10:08.350591337Z</time></trkpt><trkpt lat="42.746120" lon="-4.210722"><ele>991.922</ele><time>2026-07-22T12:10:48.350598120Z</time></trkpt><trkpt lat="42.746062" lon="-4.210698"><ele>993.154</ele><time>2026-07-22T12:11:28.350604872Z</time></trkpt><trkpt lat="42.746000" lon="-4.210712"><ele>992.449</ele><time>2026-07-22T12:12:08.350611996Z</time></trkpt><trkpt lat="42.746276" lon="-4.210850"><ele>983.841</ele><time>2026-07-22T12:12:48.350618949Z</time></trkpt><trkpt lat="42.746317" lon="-4.210888"><ele>983.881</ele><time>2026-07-22T12:13:28.350625742Z</time></trkpt><trkpt lat="42.746281" lon="-4.211059"><ele>986.009</ele><time>2026-07-22T12:14:08.350632534Z</time></trkpt><trkpt lat="42.746305" lon="-4.211072"><ele>986.207</ele><time>2026-07-22T12:14:48.350639337Z</time></trkpt><trkpt lat="42.746305" lon="-4.211178"><ele>988.666</ele><time>2026-07-22T12:15:28.350646070Z</time></trkpt><trkpt lat="42.746376" lon="-4.211299"><ele>992.934</ele><time>2026-07-22T12:16:08.350652792Z</time></trkpt><trkpt lat="42.746590" lon="-4.211364"><ele>1003.547</ele><time>2026-07-22T12:16:48.350659635Z</time></trkpt><trkpt lat="42.746668" lon="-4.211201"><ele>997.888</ele><time>2026-07-22T12:17:28.350666418Z</time></trkpt><trkpt lat="42.746723" lon="-4.211251"><ele>1000.458</ele><time>2026-07-22T12:18:08.350673230Z</time></trkpt><trkpt lat="42.746740" lon="-4.211249"><ele>1000.260</ele><time>2026-07-22T12:18:48.350680334Z</time></trkpt><trkpt lat="42.746674" lon="-4.211209"><ele>998.275</ele><time>2026-07-22T12:19:28.350687166Z</time></trkpt><trkpt lat="42.746671" lon="-4.211251"><ele>1000.551</ele><time>2026-07-22T12:20:08.350694099Z</time></trkpt><trkpt lat="42.746622" lon="-4.211273"><ele>1000.201</ele><time>2026-07-22T12:20:48.350701383Z</time></trkpt><trkpt lat="42.746604" lon="-4.211328"><ele>1002.311</ele><time>2026-07-22T12:21:28.350708557Z</time></trkpt><trkpt lat="42.746612" lon="-4.211490"><ele>1008.007</ele><time>2026-07-22T12:22:08.350715960Z</time></trkpt><trkpt lat="42.746729" lon="-4.211693"><ele>1016.617</ele><time>2026-07-22T12:22:48.350723104Z</time></trkpt><trkpt lat="42.746845" lon="-4.211787"><ele>1021.715</ele><time>2026-07-22T12:23:28.350730167Z</time></trkpt><trkpt lat="42.746994" lon="-4.212009"><ele>1028.518</ele><time>2026-07-22T12:24:08.350736960Z</time></trkpt><trkpt lat="42.746999" lon="-4.212049"><ele>1028.689</ele><time>2026-07-22T12:24:48.350743933Z</time></trkpt><trkpt lat="42.746962" lon="-4.212068"><ele>1030.689</ele><time>2026-07-22T12:25:28.350751066Z</time></trkpt><trkpt lat="42.746943" lon="-4.212223"><ele>1032.091</ele><time>2026-07-22T12:26:08.350758069Z</time></trkpt><trkpt lat="42.746987" lon="-4.212256"><ele>1030.746</ele><time>2026-07-22T12:26:48.350765012Z</time></trkpt><trkpt lat="42.747027" lon="-4.212424"><ele>1031.174</ele><time>2026-07-22T12:27:28.350772055Z</time></trkpt><trkpt lat="42.746858" lon="-4.212676"><ele>1034.456</ele><time>2026-07-22T12:28:08.350778958Z</time></trkpt><trkpt lat="42.746698" lon="-4.212793"><ele>1035.821</ele><time>2026-07-22T12:28:48.350785751Z</time></trkpt><trkpt lat="42.746585" lon="-4.212883"><ele>1034.907</ele><time>2026-07-22T12:29:28.350792444Z</time></trkpt><trkpt lat="42.746563" lon="-4.213037"><ele>1034.859</ele><time>2026-07-22T12:30:08.350799166Z</time></trkpt><trkpt lat="42.746577" lon="-4.213284"><ele>1032.287</ele><time>2026-07-22T12:30:48.350805929Z</time></trkpt><trkpt lat="42.746552" lon="-4.213430"><ele>1030.430</ele><time>2026-07-22T12:31:28.350812742Z</time></trkpt><trkpt lat="42.746328" lon="-4.214144"><ele>1026.571</ele><time>2026-07-22T12:32:08.350819464Z</time></trkpt><trkpt lat="42.746337" lon="-4.214188"><ele>1026.091</ele><time>2026-07-22T12:32:48.350826177Z</time></trkpt><trkpt lat="42.746454" lon="-4.214315"><ele>1025.383</ele><time>2026-07-22T12:33:28.350832869Z</time></trkpt><trkpt lat="42.746784" lon="-4.214624"><ele>1027.078</ele><time>2026-07-22T12:34:08.350839622Z</time></trkpt><trkpt lat="42.746935" lon="-4.214931"><ele>1026.457</ele><time>2026-07-22T12:34:48.350846425Z</time></trkpt><trkpt lat="42.747097" lon="-4.215053"><ele>1026.800</ele><time>2026-07-22T12:35:28.350853307Z</time></trkpt><trkpt lat="42.747464" lon="-4.215651"><ele>1035.320</ele><time>2026-07-22T12:36:08.350860050Z</time></trkpt><trkpt lat="42.747542" lon="-4.215744"><ele>1036.107</ele><time>2026-07-22T12:36:48.350866773Z</time></trkpt><trkpt lat="42.747458" lon="-4.216031"><ele>1041.967</ele><time>2026-07-22T12:37:28.350873435Z</time></trkpt><trkpt lat="42.747452" lon="-4.216161"><ele>1043.465</ele><time>2026-07-22T12:38:08.350880228Z</time></trkpt><trkpt lat="42.747410" lon="-4.216211"><ele>1043.768</ele><time>2026-07-22T12:38:48.350886940Z</time></trkpt><trkpt lat="42.747296" lon="-4.216285"><ele>1043.749</ele><time>2026-07-22T12:39:28.350893673Z</time></trkpt><trkpt lat="42.747186" lon="-4.216284"><ele>1043.769</ele><time>2026-07-22T12:40:08.350900816Z</time></trkpt><trkpt lat="42.747122" lon="-4.216316"><ele>1043.421</ele><time>2026-07-22T12:40:48.350907559Z</time></trkpt><trkpt lat="42.747087" lon="-4.216276"><ele>1043.676</ele><time>2026-07-22T12:41:28.350914251Z</time></trkpt><trkpt lat="42.747073" lon="-4.216326"><ele>1043.386</ele><time>2026-07-22T12:42:08.350920964Z</time></trkpt><trkpt lat="42.747066" lon="-4.216245"><ele>1043.760</ele><time>2026-07-22T12:42:48.350927687Z</time></trkpt><trkpt lat="42.747040" lon="-4.216167"><ele>1044.126</ele><time>2026-07-22T12:43:28.350934479Z</time></trkpt><trkpt lat="42.747032" lon="-4.216214"><ele>1043.807</ele><time>2026-07-22T12:44:08.350941242Z</time></trkpt><trkpt lat="42.747049" lon="-4.216142"><ele>1044.260</ele><time>2026-07-22T12:44:48.350948045Z</time></trkpt><trkpt lat="42.747110" lon="-4.216257"><ele>1043.818</ele><time>2026-07-22T12:45:28.350958124Z</time></trkpt><trkpt lat="42.747231" lon="-4.216327"><ele>1043.581</ele><time>2026-07-22T12:46:08.350965016Z</time></trkpt><trkpt lat="42.747360" lon="-4.216528"><ele>1042.092</ele><time>2026-07-22T12:46:48.350971779Z</time></trkpt><trkpt lat="42.747480" lon="-4.216607"><ele>1041.612</ele><time>2026-07-22T12:47:28.350979954Z</time></trkpt><trkpt lat="42.747527" lon="-4.216687"><ele>1040.954</ele><time>2026-07-22T12:48:08.350986917Z</time></trkpt><trkpt lat="42.747560" lon="-4.216890"><ele>1038.679</ele><time>2026-07-22T12:48:48.350993881Z</time></trkpt><trkpt lat="42.747535" lon="-4.217141"><ele>1035.886</ele><time>2026-07-22T12:49:28.351006975Z</time></trkpt><trkpt lat="42.747651" lon="-4.217589"><ele>1031.260</ele><time>2026-07-22T12:50:08.351013898Z</time></trkpt><trkpt lat="42.747694" lon="-4.217782"><ele>1029.226</ele><time>2026-07-22T12:50:48.351020631Z</time></trkpt><trkpt lat="42.747958" lon="-4.218283"><ele>1022.107</ele><time>2026-07-22T12:51:28.351027373Z</time></trkpt><trkpt lat="42.748020" lon="-4.218310"><ele>1020.880</ele><time>2026-07-22T12:52:08.351034136Z</time></trkpt><trkpt lat="42.748154" lon="-4.218247"><ele>1020.138</ele><time>2026-07-22T12:52:48.351041700Z</time></trkpt><trkpt lat="42.748303" lon="-4.218236"><ele>1019.531</ele><time>2026-07-22T12:53:28.351049495Z</time></trkpt><trkpt lat="42.748392" lon="-4.218259"><ele>1019.872</ele><time>2026-07-22T12:54:08.351056247Z</time></trkpt><trkpt lat="42.748659" lon="-4.218724"><ele>1013.912</ele><time>2026-07-22T12:54:48.351063040Z</time></trkpt><trkpt lat="42.748761" lon="-4.218865"><ele>1012.594</ele><time>2026-07-22T12:55:28.351069823Z</time></trkpt><trkpt lat="42.749070" lon="-4.219445"><ele>1004.039</ele><time>2026-07-22T12:56:08.351076595Z</time></trkpt><trkpt lat="42.749107" lon="-4.219795"><ele>999.384</ele><time>2026-07-22T12:56:48.351083438Z</time></trkpt><trkpt lat="42.749036" lon="-4.220016"><ele>998.807</ele><time>2026-07-22T12:57:28.351090191Z</time></trkpt><trkpt lat="42.748993" lon="-4.220054"><ele>999.017</ele><time>2026-07-22T12:58:08.351096903Z</time></trkpt><trkpt lat="42.748958" lon="-4.219981"><ele>1000.107</ele><time>2026-07-22T12:58:48.351103646Z</time></trkpt><trkpt lat="42.748880" lon="-4.219928"><ele>1001.720</ele><time>2026-07-22T12:59:28.351110399Z</time></trkpt><trkpt lat="42.748765" lon="-4.219912"><ele>1003.718</ele><time>2026-07-22T13:00:08.351117091Z</time></trkpt><trkpt lat="42.748638" lon="-4.219983"><ele>1005.641</ele><time>2026-07-22T13:00:48.351123824Z</time></trkpt><trkpt lat="42.748657" lon="-4.220018"><ele>1005.132</ele><time>2026-07-22T13:01:28.351130516Z</time></trkpt><trkpt lat="42.748471" lon="-4.220024"><ele>1007.932</ele><time>2026-07-22T13:02:08.351137299Z</time></trkpt><trkpt lat="42.748523" lon="-4.220255"><ele>1006.484</ele><time>2026-07-22T13:02:48.351144042Z</time></trkpt><trkpt lat="42.748578" lon="-4.220749"><ele>1005.519</ele><time>2026-07-22T13:03:28.351150794Z</time></trkpt><trkpt lat="42.748601" lon="-4.220824"><ele>1005.234</ele><time>2026-07-22T13:04:08.351157547Z</time></trkpt><trkpt lat="42.748575" lon="-4.220878"><ele>1005.955</ele><time>2026-07-22T13:04:48.351164360Z</time></trkpt><trkpt lat="42.748576" lon="-4.221287"><ele>1007.710</ele><time>2026-07-22T13:05:28.351171112Z</time></trkpt><trkpt lat="42.748667" lon="-4.221426"><ele>1006.207</ele><time>2026-07-22T13:06:08.351177845Z</time></trkpt><trkpt lat="42.748683" lon="-4.221608"><ele>1007.875</ele><time>2026-07-22T13:06:48.351184547Z</time></trkpt><trkpt lat="42.748771" lon="-4.221905"><ele>1007.233</ele><time>2026-07-22T13:07:28.351191240Z</time></trkpt><trkpt lat="42.748805" lon="-4.222064"><ele>1006.766</ele><time>2026-07-22T13:08:08.351197972Z</time></trkpt><trkpt lat="42.748758" lon="-4.222308"><ele>1007.037</ele><time>2026-07-22T13:08:48.351204635Z</time></trkpt><trkpt lat="42.748628" lon="-4.222409"><ele>1009.627</ele><time>2026-07-22T13:09:28.351211368Z</time></trkpt><trkpt lat="42.748618" lon="-4.222464"><ele>1009.839</ele><time>2026-07-22T13:10:08.351218060Z</time></trkpt><trkpt lat="42.748536" lon="-4.222470"><ele>1010.834</ele><time>2026-07-22T13:10:48.351224773Z</time></trkpt><trkpt lat="42.748500" lon="-4.222505"><ele>1011.265</ele><time>2026-07-22T13:11:28.351231575Z</time></trkpt><trkpt lat="42.748451" lon="-4.222652"><ele>1010.768</ele><time>2026-07-22T13:12:08.351238388Z</time></trkpt><trkpt lat="42.748415" lon="-4.222913"><ele>1004.114</ele><time>2026-07-22T13:12:48.351249048Z</time></trkpt><trkpt lat="42.748172" lon="-4.222793"><ele>1012.007</ele><time>2026-07-22T13:13:28.351256372Z</time></trkpt><trkpt lat="42.747978" lon="-4.222757"><ele>1012.958</ele><time>2026-07-22T13:14:08.351263335Z</time></trkpt><trkpt lat="42.747943" lon="-4.222714"><ele>1013.236</ele><time>2026-07-22T13:14:48.351270097Z</time></trkpt><trkpt lat="42.747786" lon="-4.222707"><ele>1013.089</ele><time>2026-07-22T13:15:28.351276840Z</time></trkpt><trkpt lat="42.747683" lon="-4.222616"><ele>1013.490</ele><time>2026-07-22T13:16:08.351283553Z</time></trkpt><trkpt lat="42.747592" lon="-4.222624"><ele>1012.250</ele><time>2026-07-22T13:16:48.351290345Z</time></trkpt><trkpt lat="42.747534" lon="-4.222685"><ele>1009.072</ele><time>2026-07-22T13:17:28.351297168Z</time></trkpt><trkpt lat="42.747476" lon="-4.222642"><ele>1009.567</ele><time>2026-07-22T13:18:08.351303961Z</time></trkpt><trkpt lat="42.747407" lon="-4.222512"><ele>1012.548</ele><time>2026-07-22T13:18:48.351310774Z</time></trkpt><trkpt lat="42.747362" lon="-4.222307"><ele>1015.561</ele><time>2026-07-22T13:19:28.351317586Z</time></trkpt><trkpt lat="42.747307" lon="-4.222203"><ele>1017.017</ele><time>2026-07-22T13:20:08.351324469Z</time></trkpt><trkpt lat="42.747275" lon="-4.222068"><ele>1019.807</ele><time>2026-07-22T13:20:48.351331192Z</time></trkpt><trkpt lat="42.747284" lon="-4.221992"><ele>1021.686</ele><time>2026-07-22T13:21:28.351337914Z</time></trkpt><trkpt lat="42.747119" lon="-4.221970"><ele>1021.714</ele><time>2026-07-22T13:22:08.351344697Z</time></trkpt><trkpt lat="42.747054" lon="-4.221773"><ele>1024.647</ele><time>2026-07-22T13:22:48.351351430Z</time></trkpt><trkpt lat="42.746920" lon="-4.221700"><ele>1025.578</ele><time>2026-07-22T13:23:28.351358252Z</time></trkpt><trkpt lat="42.746801" lon="-4.221590"><ele>1026.838</ele><time>2026-07-22T13:24:08.351365456Z</time></trkpt><trkpt lat="42.746718" lon="-4.221623"><ele>1026.580</ele><time>2026-07-22T13:24:48.351372319Z</time></trkpt><trkpt lat="42.746710" lon="-4.221727"><ele>1025.895</ele><time>2026-07-22T13:25:28.351379091Z</time></trkpt><trkpt lat="42.746740" lon="-4.221972"><ele>1024.643</ele><time>2026-07-22T13:26:08.351386165Z</time></trkpt><trkpt lat="42.746687" lon="-4.221972"><ele>1025.664</ele><time>2026-07-22T13:26:48.351392967Z</time></trkpt><trkpt lat="42.746567" lon="-4.222149"><ele>1028.210</ele><time>2026-07-22T13:27:28.351400111Z</time></trkpt><trkpt lat="42.746544" lon="-4.222329"><ele>1028.407</ele><time>2026-07-22T13:28:08.351407074Z</time></trkpt><trkpt lat="42.746442" lon="-4.222477"><ele>1030.736</ele><time>2026-07-22T13:28:48.351413866Z</time></trkpt><trkpt lat="42.746389" lon="-4.222637"><ele>1030.534</ele><time>2026-07-22T13:29:28.351420629Z</time></trkpt><trkpt lat="42.746231" lon="-4.222858"><ele>1033.687</ele><time>2026-07-22T13:30:08.351427322Z</time></trkpt><trkpt lat="42.746132" lon="-4.223175"><ele>1036.328</ele><time>2026-07-22T13:30:48.351434104Z</time></trkpt><trkpt lat="42.746134" lon="-4.223282"><ele>1035.548</ele><time>2026-07-22T13:31:28.351440857Z</time></trkpt><trkpt lat="42.746145" lon="-4.223320"><ele>1034.960</ele><time>2026-07-22T13:32:08.351447650Z</time></trkpt><trkpt lat="42.746476" lon="-4.223403"><ele>1025.495</ele><time>2026-07-22T13:32:48.351454412Z</time></trkpt><trkpt lat="42.746390" lon="-4.223326"><ele>1025.927</ele><time>2026-07-22T13:33:28.351461245Z</time></trkpt><trkpt lat="42.746411" lon="-4.223305"><ele>1025.268</ele><time>2026-07-22T13:34:08.351468008Z</time></trkpt><trkpt lat="42.746425" lon="-4.223333"><ele>1025.014</ele><time>2026-07-22T13:34:48.351474730Z</time></trkpt><trkpt lat="42.746414" lon="-4.223289"><ele>1025.007</ele><time>2026-07-22T13:35:28.351481483Z</time></trkpt><trkpt lat="42.746661" lon="-4.223171"><ele>1014.734</ele><time>2026-07-22T13:36:08.351488867Z</time></trkpt><trkpt lat="42.746777" lon="-4.223058"><ele>1009.322</ele><time>2026-07-22T13:36:48.351495710Z</time></trkpt><trkpt lat="42.746814" lon="-4.223206"><ele>1010.415</ele><time>2026-07-22T13:37:28.351502432Z</time></trkpt><trkpt lat="42.747033" lon="-4.223324"><ele>1003.736</ele><time>2026-07-22T13:38:08.351509115Z</time></trkpt><trkpt lat="42.747095" lon="-4.223411"><ele>1003.396</ele><time>2026-07-22T13:38:48.351515817Z</time></trkpt><trkpt lat="42.747105" lon="-4.223420"><ele>1003.138</ele><time>2026-07-22T13:39:28.351528251Z</time></trkpt><trkpt lat="42.747161" lon="-4.223428"><ele>1000.813</ele><time>2026-07-22T13:40:08.351535143Z</time></trkpt><trkpt lat="42.747234" lon="-4.223288"><ele>996.476</ele><time>2026-07-22T13:40:48.351541966Z</time></trkpt><trkpt lat="42.747178" lon="-4.223307"><ele>998.490</ele><time>2026-07-22T13:41:28.351548759Z</time></trkpt><trkpt lat="42.747263" lon="-4.223391"><ele>996.419</ele><time>2026-07-22T13:42:08.351555532Z</time></trkpt><trkpt lat="42.747391" lon="-4.223477"><ele>992.707</ele><time>2026-07-22T13:42:48.351562244Z</time></trkpt><trkpt lat="42.747526" lon="-4.223630"><ele>988.799</ele><time>2026-07-22T13:43:28.351568997Z</time></trkpt><trkpt lat="42.747589" lon="-4.223744"><ele>988.517</ele><time>2026-07-22T13:44:08.351575729Z</time></trkpt><trkpt lat="42.747813" lon="-4.223772"><ele>985.370</ele><time>2026-07-22T13:44:48.351582482Z</time></trkpt><trkpt lat="42.747896" lon="-4.223750"><ele>984.041</ele><time>2026-07-22T13:45:28.351589245Z</time></trkpt><trkpt lat="42.748019" lon="-4.223750"><ele>982.521</ele><time>2026-07-22T13:46:08.351595987Z</time></trkpt><trkpt lat="42.748142" lon="-4.223781"><ele>981.273</ele><time>2026-07-22T13:46:48.351602730Z</time></trkpt><trkpt lat="42.748273" lon="-4.223851"><ele>979.818</ele><time>2026-07-22T13:47:28.351609443Z</time></trkpt><trkpt lat="42.748764" lon="-4.223635"><ele>976.918</ele><time>2026-07-22T13:48:08.351616205Z</time></trkpt><trkpt lat="42.749039" lon="-4.223326"><ele>973.098</ele><time>2026-07-22T13:48:48.351622968Z</time></trkpt><trkpt lat="42.749200" lon="-4.223258"><ele>972.017</ele><time>2026-07-22T13:49:28.351629660Z</time></trkpt><trkpt lat="42.749367" lon="-4.223126"><ele>970.007</ele><time>2026-07-22T13:50:08.351636593Z</time></trkpt><trkpt lat="42.749369" lon="-4.222993"><ele>969.333</ele><time>2026-07-22T13:50:48.351643306Z</time></trkpt><trkpt lat="42.749490" lon="-4.222664"><ele>967.511</ele><time>2026-07-22T13:51:28.351650059Z</time></trkpt><trkpt lat="42.749547" lon="-4.222557"><ele>966.654</ele><time>2026-07-22T13:52:08.351656771Z</time></trkpt><trkpt lat="42.749685" lon="-4.222558"><ele>961.965</ele><time>2026-07-22T13:52:48.351663474Z</time></trkpt><trkpt lat="42.749918" lon="-4.222325"><ele>959.025</ele><time>2026-07-22T13:53:28.351670216Z</time></trkpt><trkpt lat="42.749924" lon="-4.222232"><ele>958.037</ele><time>2026-07-22T13:54:08.351676889Z</time></trkpt><trkpt lat="42.749944" lon="-4.221906"><ele>955.982</ele><time>2026-07-22T13:54:48.351683581Z</time></trkpt><trkpt lat="42.749946" lon="-4.221726"><ele>954.298</ele><time>2026-07-22T13:55:28.351690354Z</time></trkpt><trkpt lat="42.749970" lon="-4.221661"><ele>952.615</ele><time>2026-07-22T13:56:08.351697147Z</time></trkpt><trkpt lat="42.750061" lon="-4.221591"><ele>950.526</ele><time>2026-07-22T13:56:48.351704080Z</time></trkpt><trkpt lat="42.750138" lon="-4.221653"><ele>948.607</ele><time>2026-07-22T13:57:28.351711003Z</time></trkpt><trkpt lat="42.750298" lon="-4.221389"><ele>944.761</ele><time>2026-07-22T13:58:08.351717775Z</time></trkpt><trkpt lat="42.750298" lon="-4.221413"><ele>944.839</ele><time>2026-07-22T13:58:48.351724708Z</time></trkpt><trkpt lat="42.750383" lon="-4.221372"><ele>943.552</ele><time>2026-07-22T13:59:28.351731501Z</time></trkpt><trkpt lat="42.750501" lon="-4.221398"><ele>942.063</ele><time>2026-07-22T14:00:08.351738203Z</time></trkpt><trkpt lat="42.750691" lon="-4.221188"><ele>939.753</ele><time>2026-07-22T14:00:48.351744956Z</time></trkpt><trkpt lat="42.750787" lon="-4.221129"><ele>938.665</ele><time>2026-07-22T14:01:28.351751659Z</time></trkpt><trkpt lat="42.751435" lon="-4.221107"><ele>940.780</ele><time>2026-07-22T14:02:08.351758461Z</time></trkpt><trkpt lat="42.751471" lon="-4.220956"><ele>938.875</ele><time>2026-07-22T14:02:48.351765204Z</time></trkpt><trkpt lat="42.751525" lon="-4.220854"><ele>937.928</ele><time>2026-07-22T14:03:28.351771947Z</time></trkpt><trkpt lat="42.751596" lon="-4.220620"><ele>933.920</ele><time>2026-07-22T14:04:08.351778729Z</time></trkpt><trkpt lat="42.751687" lon="-4.220533"><ele>932.307</ele><time>2026-07-22T14:04:48.351785502Z</time></trkpt><trkpt lat="42.751829" lon="-4.220353"><ele>931.889</ele><time>2026-07-22T14:05:28.351792164Z</time></trkpt><trkpt lat="42.751839" lon="-4.220276"><ele>930.467</ele><time>2026-07-22T14:06:08.351798927Z</time></trkpt><trkpt lat="42.751957" lon="-4.220054"><ele>927.580</ele><time>2026-07-22T14:06:48.351805760Z</time></trkpt><trkpt lat="42.752083" lon="-4.219951"><ele>926.411</ele><time>2026-07-22T14:07:28.351812432Z</time></trkpt><trkpt lat="42.752136" lon="-4.219886"><ele>926.051</ele><time>2026-07-22T14:08:08.351819185Z</time></trkpt><trkpt lat="42.752124" lon="-4.219818"><ele>926.443</ele><time>2026-07-22T14:08:48.351825868Z</time></trkpt><trkpt lat="42.752266" lon="-4.219432"><ele>924.548</ele><time>2026-07-22T14:09:28.351832550Z</time></trkpt><trkpt lat="42.752313" lon="-4.219102"><ele>924.114</ele><time>2026-07-22T14:10:08.351839333Z</time></trkpt><trkpt lat="42.752410" lon="-4.218869"><ele>923.754</ele><time>2026-07-22T14:10:48.351846125Z</time></trkpt><trkpt lat="42.752547" lon="-4.218649"><ele>925.309</ele><time>2026-07-22T14:11:28.351852798Z</time></trkpt><trkpt lat="42.752296" lon="-4.218110"><ele>928.707</ele><time>2026-07-22T14:12:08.351859460Z</time></trkpt><trkpt lat="42.752171" lon="-4.217824"><ele>930.613</ele><time>2026-07-22T14:12:48.351866143Z</time></trkpt><trkpt lat="42.752135" lon="-4.217747"><ele>931.241</ele><time>2026-07-22T14:13:28.351872855Z</time></trkpt><trkpt lat="42.752112" lon="-4.217679"><ele>931.494</ele><time>2026-07-22T14:14:08.351879618Z</time></trkpt><trkpt lat="42.752062" lon="-4.217535"><ele>931.745</ele><time>2026-07-22T14:14:48.351886261Z</time></trkpt><trkpt lat="42.752052" lon="-4.217501"><ele>931.895</ele><time>2026-07-22T14:15:28.351892923Z</time></trkpt><trkpt lat="42.751534" lon="-4.215968"><ele>937.737</ele><time>2026-07-22T14:16:08.351899646Z</time></trkpt><trkpt lat="42.751117" lon="-4.215127"><ele>941.072</ele><time>2026-07-22T14:16:48.351906328Z</time></trkpt><trkpt lat="42.750678" lon="-4.214100"><ele>947.456</ele><time>2026-07-22T14:17:28.351913061Z</time></trkpt><trkpt lat="42.750479" lon="-4.213755"><ele>948.659</ele><time>2026-07-22T14:18:08.351919833Z</time></trkpt><trkpt lat="42.750232" lon="-4.213462"><ele>946.614</ele><time>2026-07-22T14:18:48.351926756Z</time></trkpt><trkpt lat="42.749910" lon="-4.213222"><ele>945.307</ele><time>2026-07-22T14:19:28.351933469Z</time></trkpt><trkpt lat="42.749647" lon="-4.213093"><ele>945.247</ele><time>2026-07-22T14:20:08.351940131Z</time></trkpt><trkpt lat="42.749223" lon="-4.212521"><ele>947.475</ele><time>2026-07-22T14:20:48.351946834Z</time></trkpt><trkpt lat="42.748990" lon="-4.212239"><ele>948.448</ele><time>2026-07-22T14:21:28.351953516Z</time></trkpt><trkpt lat="42.748837" lon="-4.211904"><ele>947.299</ele><time>2026-07-22T14:22:08.351960199Z</time></trkpt><trkpt lat="42.748757" lon="-4.211632"><ele>947.399</ele><time>2026-07-22T14:22:48.351966962Z</time></trkpt><trkpt lat="42.748619" lon="-4.210700"><ele>948.941</ele><time>2026-07-22T14:23:28.351973634Z</time></trkpt><trkpt lat="42.748510" lon="-4.210323"><ele>950.546</ele><time>2026-07-22T14:24:08.351980317Z</time></trkpt><trkpt lat="42.748385" lon="-4.210217"><ele>951.988</ele><time>2026-07-22T14:24:48.351990466Z</time></trkpt><trkpt lat="42.748207" lon="-4.209844"><ele>952.624</ele><time>2026-07-22T14:25:28.351997369Z</time></trkpt><trkpt lat="42.748176" lon="-4.209510"><ele>951.926</ele><time>2026-07-22T14:26:08.352008219Z</time></trkpt><trkpt lat="42.748093" lon="-4.209180"><ele>950.807</ele><time>2026-07-22T14:26:48.352017506Z</time></trkpt><trkpt lat="42.748123" lon="-4.209031"><ele>949.910</ele><time>2026-07-22T14:27:28.352026603Z</time></trkpt><trkpt lat="42.748003" lon="-4.208770"><ele>950.578</ele><time>2026-07-22T14:28:08.352033396Z</time></trkpt><trkpt lat="42.747893" lon="-4.208431"><ele>951.311</ele><time>2026-07-22T14:28:48.352040109Z</time></trkpt></trkseg></trk></gpx>